createdAt,value
2022-11-05T00:00:19.201Z,990.35
2022-11-05T00:01:19.248Z,990.32
2022-11-05T00:02:19.209Z,990.38
2022-11-05T00:03:19.284Z,990.38
2022-11-05T00:04:19.191Z,990.38
2022-11-05T00:05:19.198Z,990.40
2022-11-05T00:06:19.229Z,990.42
2022-11-05T00:07:19.189Z,990.43
2022-11-05T00:08:19.208Z,990.43
2022-11-05T00:09:19.203Z,990.47
2022-11-05T00:10:19.479Z,990.43
2022-11-05T00:11:19.234Z,990.49
2022-11-05T00:12:19.229Z,990.44
2022-11-05T00:13:19.214Z,990.49
2022-11-05T00:14:19.218Z,990.47
2022-11-05T00:15:19.213Z,990.46
2022-11-05T00:16:19.223Z,990.42
2022-11-05T00:17:19.224Z,990.47
2022-11-05T00:18:19.202Z,990.48
2022-11-05T00:19:19.218Z,990.48
2022-11-05T00:20:19.222Z,990.48
2022-11-05T00:21:19.222Z,990.50
2022-11-05T00:22:19.191Z,990.48
2022-11-05T00:23:19.204Z,990.51
2022-11-05T00:24:24.052Z,990.49
2022-11-05T00:25:19.226Z,990.52
2022-11-05T00:26:19.254Z,990.52
2022-11-05T00:27:19.225Z,990.49
2022-11-05T00:28:19.213Z,990.53
2022-11-05T00:29:19.228Z,990.59
2022-11-05T00:30:19.215Z,990.58
2022-11-05T00:31:19.239Z,990.56
2022-11-05T00:32:19.250Z,990.52
2022-11-05T00:33:19.232Z,990.55
2022-11-05T00:34:19.231Z,990.56
2022-11-05T00:35:19.242Z,990.61
2022-11-05T00:36:19.223Z,990.61
2022-11-05T00:37:19.237Z,990.56
2022-11-05T00:38:19.238Z,990.64
2022-11-05T00:39:19.229Z,990.68
2022-11-05T00:40:19.227Z,990.69
2022-11-05T00:41:19.249Z,990.66
2022-11-05T00:42:19.259Z,990.68
2022-11-05T00:43:19.248Z,990.68
2022-11-05T00:44:19.230Z,990.68
2022-11-05T00:45:19.234Z,990.69
2022-11-05T00:46:19.215Z,990.73
2022-11-05T00:47:19.262Z,990.79
2022-11-05T00:48:19.250Z,990.80
2022-11-05T00:49:19.244Z,990.80
2022-11-05T00:50:19.243Z,990.79
2022-11-05T00:51:19.255Z,990.78
2022-11-05T00:52:19.265Z,990.79
2022-11-05T00:53:19.255Z,990.83
2022-11-05T00:54:19.241Z,990.79
2022-11-05T00:55:19.253Z,990.81
2022-11-05T00:56:19.253Z,990.79
2022-11-05T00:57:19.267Z,990.86
2022-11-05T00:58:19.264Z,990.83
2022-11-05T00:59:19.268Z,990.82
2022-11-05T01:00:19.260Z,990.82
2022-11-05T01:01:19.319Z,990.99
2022-11-05T01:02:19.385Z,990.88
2022-11-05T01:03:19.270Z,990.93
2022-11-05T01:04:19.257Z,990.91
2022-11-05T01:05:19.275Z,990.92
2022-11-05T01:06:19.274Z,991.00
2022-11-05T01:07:19.290Z,991.00
2022-11-05T01:08:19.269Z,990.99
2022-11-05T01:09:19.270Z,990.95
2022-11-05T01:10:19.271Z,991.00
2022-11-05T01:11:19.279Z,991.03
2022-11-05T01:12:19.273Z,991.07
2022-11-05T01:13:19.873Z,991.08
2022-11-05T01:14:19.261Z,991.04
2022-11-05T01:15:19.266Z,991.03
2022-11-05T01:16:19.283Z,991.11
2022-11-05T01:17:19.282Z,991.04
2022-11-05T01:18:19.291Z,991.11
2022-11-05T01:19:19.269Z,991.05
2022-11-05T01:20:19.271Z,991.01
2022-11-05T01:21:19.256Z,991.04
2022-11-05T01:22:19.306Z,991.06
2022-11-05T01:23:19.656Z,991.03
2022-11-05T01:24:19.276Z,990.97
2022-11-05T01:25:19.288Z,991.04
2022-11-05T01:26:19.283Z,991.10
2022-11-05T01:27:19.307Z,991.15
2022-11-05T01:28:19.351Z,991.19
2022-11-05T01:29:19.282Z,991.15
2022-11-05T01:30:19.284Z,991.09
2022-11-05T01:31:19.292Z,991.19
2022-11-05T01:32:19.298Z,991.20
2022-11-05T01:33:19.297Z,991.14
2022-11-05T01:34:19.291Z,991.20
2022-11-05T01:35:19.291Z,991.18
2022-11-05T01:36:19.305Z,991.19
2022-11-05T01:37:19.296Z,991.16
2022-11-05T01:38:19.317Z,991.22
2022-11-05T01:39:19.303Z,991.23
2022-11-05T01:40:19.289Z,991.29
2022-11-05T01:41:19.293Z,991.23
2022-11-05T01:42:19.274Z,991.32
2022-11-05T01:43:19.288Z,991.32
2022-11-05T01:44:19.314Z,991.39
2022-11-05T01:45:19.298Z,991.35
2022-11-05T01:46:19.305Z,991.39
2022-11-05T01:47:19.303Z,991.44
2022-11-05T01:48:19.308Z,991.36
2022-11-05T01:49:19.306Z,991.39
2022-11-05T01:50:19.297Z,991.45
2022-11-05T01:51:19.307Z,991.49
2022-11-05T01:52:19.314Z,991.44
2022-11-05T01:53:19.332Z,991.39
2022-11-05T01:54:19.318Z,991.36
2022-11-05T01:55:19.310Z,991.41
2022-11-05T01:56:19.298Z,991.38
2022-11-05T01:57:19.301Z,991.51
2022-11-05T01:58:19.317Z,991.39
2022-11-05T01:59:19.314Z,991.52
2022-11-05T02:00:19.317Z,991.49
2022-11-05T02:01:19.454Z,991.52
2022-11-05T02:02:19.399Z,991.49
2022-11-05T02:03:19.338Z,991.46
2022-11-05T02:04:19.283Z,991.49
2022-11-05T02:05:19.334Z,991.43
2022-11-05T02:06:19.334Z,991.46
2022-11-05T02:07:19.323Z,991.42
2022-11-05T02:08:19.345Z,991.48
2022-11-05T02:09:19.333Z,991.44
2022-11-05T02:10:19.317Z,991.50
2022-11-05T02:11:19.319Z,991.50
2022-11-05T02:12:19.341Z,991.46
2022-11-05T02:13:19.333Z,991.41
2022-11-05T02:14:19.341Z,991.43
2022-11-05T02:15:19.329Z,991.41
2022-11-05T02:16:19.319Z,991.37
2022-11-05T02:17:19.340Z,991.40
2022-11-05T02:18:19.332Z,991.40
2022-11-05T02:19:19.354Z,991.38
2022-11-05T02:20:19.346Z,991.39
2022-11-05T02:21:19.354Z,991.36
2022-11-05T02:22:19.305Z,991.32
2022-11-05T02:23:19.332Z,991.42
2022-11-05T02:24:19.356Z,991.37
2022-11-05T02:25:19.357Z,991.44
2022-11-05T02:26:19.335Z,991.44
2022-11-05T02:27:19.345Z,991.49
2022-11-05T02:28:19.350Z,991.49
2022-11-05T02:29:19.341Z,991.48
2022-11-05T02:30:19.338Z,991.47
2022-11-05T02:31:19.357Z,991.42
2022-11-05T02:32:19.329Z,991.58
2022-11-05T02:33:19.347Z,991.55
2022-11-05T02:34:19.337Z,991.58
2022-11-05T02:35:19.334Z,991.53
2022-11-05T02:36:19.360Z,991.63
2022-11-05T02:37:19.348Z,991.65
2022-11-05T02:38:19.342Z,991.70
2022-11-05T02:39:19.348Z,991.56
2022-11-05T02:40:19.344Z,991.67
2022-11-05T02:41:19.360Z,991.61
2022-11-05T02:42:19.385Z,991.65
2022-11-05T02:43:19.360Z,991.72
2022-11-05T02:44:19.365Z,991.73
2022-11-05T02:45:19.361Z,991.77
2022-11-05T02:46:19.355Z,991.81
2022-11-05T02:47:19.371Z,991.75
2022-11-05T02:48:19.357Z,991.77
2022-11-05T02:49:19.355Z,991.74
2022-11-05T02:50:19.356Z,991.68
2022-11-05T02:51:19.363Z,991.68
2022-11-05T02:52:19.358Z,991.64
2022-11-05T02:53:19.396Z,991.77
2022-11-05T02:54:19.372Z,991.75
2022-11-05T02:55:19.358Z,991.77
2022-11-05T02:56:19.364Z,991.80
2022-11-05T02:57:19.374Z,991.82
2022-11-05T02:58:19.384Z,991.83
2022-11-05T02:59:19.398Z,991.76
2022-11-05T03:00:19.397Z,991.81
2022-11-05T03:01:19.503Z,991.84
2022-11-05T03:02:19.512Z,991.87
2022-11-05T03:03:19.420Z,991.79
2022-11-05T03:04:19.436Z,991.89
2022-11-05T03:05:19.426Z,991.83
2022-11-05T03:06:19.445Z,991.89
2022-11-05T03:07:19.474Z,991.92
2022-11-05T03:08:19.475Z,991.89
2022-11-05T03:09:19.489Z,991.89
2022-11-05T03:10:19.493Z,991.95
2022-11-05T03:11:19.501Z,991.97
2022-11-05T03:12:19.499Z,991.97
2022-11-05T03:13:19.522Z,991.99
2022-11-05T03:14:19.552Z,991.96
2022-11-05T03:15:19.542Z,991.89
2022-11-05T03:16:19.545Z,991.90
2022-11-05T03:17:19.574Z,991.90
2022-11-05T03:18:19.566Z,991.91
2022-11-05T03:19:19.599Z,992.03
2022-11-05T03:20:19.622Z,991.95
2022-11-05T03:21:19.611Z,991.97
2022-11-05T03:22:19.629Z,991.97
2022-11-05T03:23:19.643Z,991.96
2022-11-05T03:24:19.657Z,991.94
2022-11-05T03:25:19.687Z,992.03
2022-11-05T03:26:19.687Z,991.95
2022-11-05T03:27:19.698Z,991.99
2022-11-05T03:28:19.716Z,991.92
2022-11-05T03:29:19.716Z,991.97
2022-11-05T03:30:19.766Z,991.93
2022-11-05T03:31:19.744Z,991.94
2022-11-05T03:32:19.739Z,991.96
2022-11-05T03:33:19.769Z,991.97
2022-11-05T03:34:19.773Z,992.02
2022-11-05T03:35:19.816Z,992.06
2022-11-05T03:36:19.795Z,991.98
2022-11-05T03:37:19.813Z,991.97
2022-11-05T03:38:19.837Z,992.03
2022-11-05T03:39:19.825Z,992.05
2022-11-05T03:40:19.859Z,992.10
2022-11-05T03:41:19.859Z,992.02
2022-11-05T03:42:19.861Z,992.08
2022-11-05T03:43:19.885Z,992.09
2022-11-05T03:44:19.897Z,992.06
2022-11-05T03:45:19.912Z,992.12
2022-11-05T03:46:19.937Z,992.12
2022-11-05T03:47:19.934Z,992.10
2022-11-05T03:48:19.992Z,992.15
2022-11-05T03:49:19.963Z,992.18
2022-11-05T03:50:19.961Z,992.26
2022-11-05T03:51:19.995Z,992.26
2022-11-05T03:52:19.990Z,992.25
2022-11-05T03:53:20.004Z,992.27
2022-11-05T03:54:20.007Z,992.27
2022-11-05T03:55:20.022Z,992.29
2022-11-05T03:56:20.053Z,992.37
2022-11-05T03:57:20.061Z,992.31
2022-11-05T03:58:20.078Z,992.36
2022-11-05T03:59:20.059Z,992.45
2022-11-05T04:00:20.100Z,992.36
2022-11-05T04:01:20.302Z,992.44
2022-11-05T04:02:20.301Z,992.40
2022-11-05T04:03:20.125Z,992.39
2022-11-05T04:04:20.132Z,992.40
2022-11-05T04:05:20.153Z,992.39
2022-11-05T04:06:20.151Z,992.45
2022-11-05T04:07:20.189Z,992.47
2022-11-05T04:08:20.178Z,992.51
2022-11-05T04:09:20.184Z,992.49
2022-11-05T04:10:20.248Z,992.48
2022-11-05T04:11:20.227Z,992.52
2022-11-05T04:12:20.240Z,992.57
2022-11-05T04:13:20.222Z,992.56
2022-11-05T04:14:20.266Z,992.59
2022-11-05T04:15:20.275Z,992.54
2022-11-05T04:16:20.277Z,992.56
2022-11-05T04:17:20.317Z,992.50
2022-11-05T04:18:20.315Z,992.58
2022-11-05T04:19:25.178Z,992.59
2022-11-05T04:20:20.317Z,992.59
2022-11-05T04:21:20.428Z,992.62
2022-11-05T04:22:20.321Z,992.71
2022-11-05T04:23:20.323Z,992.66
2022-11-05T04:24:20.452Z,992.72
2022-11-05T04:25:20.308Z,992.66
2022-11-05T04:26:20.331Z,992.62
2022-11-05T04:27:20.307Z,992.70
2022-11-05T04:28:20.324Z,992.67
2022-11-05T04:29:20.338Z,992.71
2022-11-05T04:30:20.539Z,992.70
2022-11-05T04:31:20.320Z,992.71
2022-11-05T04:32:20.337Z,992.67
2022-11-05T04:33:20.333Z,992.70
2022-11-05T04:34:20.358Z,992.73
2022-11-05T04:35:20.327Z,992.73
2022-11-05T04:36:20.329Z,992.76
2022-11-05T04:37:20.328Z,992.79
2022-11-05T04:38:20.345Z,992.77
2022-11-05T04:39:20.338Z,992.76
2022-11-05T04:40:20.353Z,992.79
2022-11-05T04:41:20.339Z,992.80
2022-11-05T04:42:20.331Z,992.84
2022-11-05T04:43:20.555Z,992.83
2022-11-05T04:44:20.353Z,992.85
2022-11-05T04:45:20.342Z,992.86
2022-11-05T04:46:20.346Z,992.86
2022-11-05T04:47:20.355Z,992.85
2022-11-05T04:48:20.345Z,992.89
2022-11-05T04:49:20.363Z,992.85
2022-11-05T04:50:20.357Z,992.94
2022-11-05T04:51:20.352Z,992.86
2022-11-05T04:52:20.341Z,992.93
2022-11-05T04:53:20.330Z,992.88
2022-11-05T04:54:20.353Z,992.91
2022-11-05T04:55:20.354Z,992.94
2022-11-05T04:56:20.349Z,992.91
2022-11-05T04:57:20.351Z,992.92
2022-11-05T04:58:20.349Z,992.91
2022-11-05T04:59:20.351Z,992.93
2022-11-05T05:00:20.361Z,992.99
2022-11-05T05:01:20.465Z,993.03
2022-11-05T05:02:20.442Z,992.99
2022-11-05T05:03:20.357Z,992.97
2022-11-05T05:04:20.370Z,992.98
2022-11-05T05:05:20.368Z,992.97
2022-11-05T05:06:20.357Z,993.00
2022-11-05T05:07:20.347Z,993.05
2022-11-05T05:08:20.354Z,993.02
2022-11-05T05:09:20.365Z,992.94
2022-11-05T05:10:20.391Z,992.97
2022-11-05T05:11:20.372Z,993.06
2022-11-05T05:12:20.383Z,993.07
2022-11-05T05:13:20.371Z,993.07
2022-11-05T05:14:20.369Z,993.00
2022-11-05T05:15:20.385Z,993.02
2022-11-05T05:16:20.342Z,993.10
2022-11-05T05:17:20.355Z,992.99
2022-11-05T05:18:20.358Z,993.10
2022-11-05T05:19:20.363Z,993.14
2022-11-05T05:20:20.387Z,993.11
2022-11-05T05:21:20.380Z,993.11
2022-11-05T05:22:20.376Z,993.08
2022-11-05T05:23:20.367Z,993.13
2022-11-05T05:24:20.375Z,993.14
2022-11-05T05:25:20.384Z,993.14
2022-11-05T05:26:20.384Z,993.18
2022-11-05T05:27:20.377Z,993.07
2022-11-05T05:28:20.394Z,993.07
2022-11-05T05:29:20.379Z,993.07
2022-11-05T05:30:20.398Z,993.05
2022-11-05T05:31:20.392Z,993.15
2022-11-05T05:32:20.392Z,993.14
2022-11-05T05:33:20.379Z,993.18
2022-11-05T05:34:20.377Z,993.13
2022-11-05T05:35:20.389Z,993.22
2022-11-05T05:36:20.414Z,993.25
2022-11-05T05:37:20.387Z,993.28
2022-11-05T05:38:20.383Z,993.25
2022-11-05T05:39:20.390Z,993.20
2022-11-05T05:40:20.397Z,993.30
2022-11-05T05:41:20.400Z,993.33
2022-11-05T05:42:20.406Z,993.26
2022-11-05T05:43:20.402Z,993.25
2022-11-05T05:44:20.391Z,993.30
2022-11-05T05:45:20.407Z,993.26
2022-11-05T05:46:20.416Z,993.37
2022-11-05T05:47:20.393Z,993.33
2022-11-05T05:48:20.399Z,993.33
2022-11-05T05:49:20.395Z,993.40
2022-11-05T05:50:20.409Z,993.41
2022-11-05T05:51:20.407Z,993.40
2022-11-05T05:52:20.412Z,993.43
2022-11-05T05:53:20.408Z,993.33
2022-11-05T05:54:20.410Z,993.43
2022-11-05T05:55:20.412Z,993.44
2022-11-05T05:56:20.453Z,993.40
2022-11-05T05:57:20.400Z,993.46
2022-11-05T05:58:20.399Z,993.40
2022-11-05T05:59:20.416Z,993.44
2022-11-05T06:00:20.417Z,993.47
2022-11-05T06:01:20.496Z,993.44
2022-11-05T06:02:20.547Z,993.46
2022-11-05T06:03:20.398Z,993.53
2022-11-05T06:04:20.412Z,993.55
2022-11-05T06:05:20.425Z,993.54
2022-11-05T06:06:20.419Z,993.54
2022-11-05T06:07:20.428Z,993.54
2022-11-05T06:08:20.435Z,993.59
2022-11-05T06:09:20.409Z,993.60
2022-11-05T06:10:20.474Z,993.55
2022-11-05T06:11:20.415Z,993.60
2022-11-05T06:12:20.410Z,993.62
2022-11-05T06:13:20.433Z,993.64
2022-11-05T06:14:20.426Z,993.66
2022-11-05T06:15:20.462Z,993.63
2022-11-05T06:16:20.432Z,993.64
2022-11-05T06:17:20.465Z,993.66
2022-11-05T06:18:20.431Z,993.66
2022-11-05T06:19:20.436Z,993.65
2022-11-05T06:20:20.417Z,993.71
2022-11-05T06:21:20.429Z,993.74
2022-11-05T06:22:20.443Z,993.70
2022-11-05T06:23:20.453Z,993.75
2022-11-05T06:24:20.434Z,993.75
2022-11-05T06:25:20.426Z,993.74
2022-11-05T06:26:20.457Z,993.73
2022-11-05T06:27:20.430Z,993.77
2022-11-05T06:28:20.455Z,993.75
2022-11-05T06:29:20.466Z,993.82
2022-11-05T06:30:20.421Z,993.88
2022-11-05T06:31:20.438Z,993.99
2022-11-05T06:32:20.446Z,993.93
2022-11-05T06:33:20.456Z,994.05
2022-11-05T06:34:20.450Z,993.98
2022-11-05T06:35:20.466Z,993.99
2022-11-05T06:36:20.453Z,994.01
2022-11-05T06:37:20.449Z,994.00
2022-11-05T06:38:20.445Z,994.03
2022-11-05T06:39:20.452Z,994.08
2022-11-05T06:40:20.439Z,994.07
2022-11-05T06:41:20.546Z,994.08
2022-11-05T06:42:20.456Z,994.09
2022-11-05T06:43:20.452Z,994.02
2022-11-05T06:44:20.449Z,994.01
2022-11-05T06:45:20.441Z,994.01
2022-11-05T06:46:20.445Z,993.99
2022-11-05T06:47:20.444Z,994.05
2022-11-05T06:48:20.439Z,993.95
2022-11-05T06:49:20.461Z,994.02
2022-11-05T06:50:20.456Z,994.04
2022-11-05T06:51:20.461Z,994.03
2022-11-05T06:52:20.456Z,994.03
2022-11-05T06:53:20.487Z,994.07
2022-11-05T06:54:20.460Z,994.03
2022-11-05T06:55:20.448Z,994.04
2022-11-05T06:56:20.463Z,994.07
2022-11-05T06:57:20.473Z,994.05
2022-11-05T06:58:20.507Z,994.14
2022-11-05T06:59:20.502Z,994.14
2022-11-05T07:00:20.518Z,994.16
2022-11-05T07:01:20.754Z,994.20
2022-11-05T07:02:20.584Z,994.26
2022-11-05T07:03:20.562Z,994.28
2022-11-05T07:04:20.550Z,994.33
2022-11-05T07:05:20.558Z,994.38
2022-11-05T07:06:20.581Z,994.40
2022-11-05T07:07:20.604Z,994.42
2022-11-05T07:08:20.607Z,994.34
2022-11-05T07:09:20.662Z,994.36
2022-11-05T07:10:40.350Z,994.44
2022-11-05T07:11:40.389Z,994.46
2022-11-05T07:12:40.376Z,994.50
2022-11-05T07:13:40.359Z,994.47
2022-11-05T07:14:40.363Z,994.52
2022-11-05T07:15:40.344Z,994.56
2022-11-05T07:16:40.367Z,994.56
2022-11-05T07:17:40.393Z,994.60
2022-11-05T07:18:40.390Z,994.56
2022-11-05T07:19:40.387Z,994.63
2022-11-05T07:20:40.368Z,994.61
2022-11-05T07:21:40.381Z,994.64
2022-11-05T07:22:40.359Z,994.65
2022-11-05T07:23:40.399Z,994.72
2022-11-05T07:24:40.363Z,994.64
2022-11-05T07:25:40.365Z,994.67
2022-11-05T07:26:40.392Z,994.74
2022-11-05T07:27:40.377Z,994.66
2022-11-05T07:28:40.385Z,994.68
2022-11-05T07:29:40.392Z,994.68
2022-11-05T07:30:40.410Z,994.71
2022-11-05T07:31:40.390Z,994.71
2022-11-05T07:32:40.410Z,994.79
2022-11-05T07:33:40.400Z,994.67
2022-11-05T07:34:40.388Z,994.70
2022-11-05T07:35:40.384Z,994.81
2022-11-05T07:36:40.382Z,994.80
2022-11-05T07:37:40.379Z,994.75
2022-11-05T07:38:40.417Z,994.77
2022-11-05T07:39:40.442Z,994.78
2022-11-05T07:40:40.392Z,994.77
2022-11-05T07:41:40.366Z,994.73
2022-11-05T07:42:40.384Z,994.79
2022-11-05T07:43:40.380Z,994.74
2022-11-05T07:44:40.393Z,994.83
2022-11-05T07:45:40.359Z,994.77
2022-11-05T07:46:40.387Z,994.79
2022-11-05T07:47:40.399Z,994.79
2022-11-05T07:48:40.530Z,994.76
2022-11-05T07:49:40.618Z,994.75
2022-11-05T07:50:40.551Z,994.77
2022-11-05T07:51:40.605Z,994.85
2022-11-05T07:52:40.573Z,994.78
2022-11-05T07:53:45.147Z,994.79
2022-11-05T07:54:40.577Z,994.89
2022-11-05T07:55:40.667Z,994.90
2022-11-05T07:56:40.625Z,994.92
2022-11-05T07:57:40.617Z,994.91
2022-11-05T07:58:40.593Z,994.87
2022-11-05T07:59:40.600Z,994.88
2022-11-05T08:00:40.733Z,994.92
2022-11-05T08:01:40.884Z,994.94
2022-11-05T08:02:40.853Z,994.96
2022-11-05T08:03:40.700Z,995.07
2022-11-05T08:04:40.674Z,995.00
2022-11-05T08:05:40.661Z,995.05
2022-11-05T08:06:40.680Z,995.11
2022-11-05T08:07:40.670Z,995.08
2022-11-05T08:08:40.709Z,995.05
2022-11-05T08:09:40.773Z,995.05
2022-11-05T08:10:40.745Z,995.09
2022-11-05T08:11:40.753Z,995.08
2022-11-05T08:12:40.731Z,995.08
2022-11-05T08:13:40.742Z,995.05
2022-11-05T08:14:40.778Z,995.02
2022-11-05T08:15:40.797Z,995.05
2022-11-05T08:16:40.789Z,994.94
2022-11-05T08:17:40.803Z,995.04
2022-11-05T08:18:40.850Z,995.00
2022-11-05T08:19:40.850Z,995.07
2022-11-05T08:20:41.017Z,995.03
2022-11-05T08:21:40.848Z,995.03
2022-11-05T08:22:40.887Z,995.02
2022-11-05T08:23:40.880Z,995.07
2022-11-05T08:24:40.957Z,994.96
2022-11-05T08:25:40.932Z,995.01
2022-11-05T08:26:40.921Z,995.05
2022-11-05T08:27:40.997Z,995.00
2022-11-05T08:28:40.943Z,995.05
2022-11-05T08:29:40.996Z,995.03
2022-11-05T08:30:41.018Z,994.99
2022-11-05T08:31:41.034Z,994.98
2022-11-05T08:32:41.027Z,995.06
2022-11-05T08:33:41.027Z,995.01
2022-11-05T08:34:41.055Z,995.04
2022-11-05T08:35:41.118Z,995.07
2022-11-05T08:36:41.071Z,995.05
2022-11-05T08:37:41.098Z,995.03
2022-11-05T08:38:41.164Z,995.06
2022-11-05T08:39:41.103Z,995.04
2022-11-05T08:40:41.112Z,995.06
2022-11-05T08:41:41.143Z,995.11
2022-11-05T08:42:41.118Z,995.14
2022-11-05T08:43:41.199Z,995.18
2022-11-05T08:44:41.193Z,995.14
2022-11-05T08:45:41.237Z,995.12
2022-11-05T08:46:41.806Z,995.18
2022-11-05T08:47:41.247Z,995.17
2022-11-05T08:48:41.273Z,995.20
2022-11-05T08:49:41.275Z,995.28
2022-11-05T08:50:41.252Z,995.22
2022-11-05T08:51:41.317Z,995.31
2022-11-05T08:52:41.278Z,995.32
2022-11-05T08:53:41.328Z,995.31
2022-11-05T08:54:41.296Z,995.36
2022-11-05T08:55:41.340Z,995.35
2022-11-05T08:56:41.322Z,995.39
2022-11-05T08:57:41.348Z,995.29
2022-11-05T08:58:41.333Z,995.25
2022-11-05T08:59:41.363Z,995.32
2022-11-05T09:00:41.490Z,995.32
2022-11-05T09:01:41.492Z,995.31
2022-11-05T09:02:41.510Z,995.36
2022-11-05T09:03:41.390Z,995.41
2022-11-05T09:04:41.411Z,995.46
2022-11-05T09:05:41.460Z,995.40
2022-11-05T09:06:41.464Z,995.42
2022-11-05T09:07:41.489Z,995.39
2022-11-05T09:08:41.435Z,995.46
2022-11-05T09:09:41.454Z,995.44
2022-11-05T09:10:41.448Z,995.41
2022-11-05T09:12:10.111Z,995.44
2022-11-05T09:12:41.563Z,995.45
2022-11-05T09:13:41.539Z,995.48
2022-11-05T09:14:41.501Z,995.46
2022-11-05T09:15:41.489Z,995.46
2022-11-05T09:16:41.496Z,995.49
2022-11-05T09:17:41.526Z,995.47
2022-11-05T09:18:41.533Z,995.42
2022-11-05T09:19:41.473Z,995.44
2022-11-05T09:20:41.515Z,995.40
2022-11-05T09:21:41.514Z,995.41
2022-11-05T09:22:43.497Z,995.48
2022-11-05T09:23:41.566Z,995.40
2022-11-05T09:24:41.509Z,995.45
2022-11-05T09:25:41.551Z,995.42
2022-11-05T09:26:41.504Z,995.48
2022-11-05T09:27:41.500Z,995.44
2022-11-05T09:28:41.524Z,995.42
2022-11-05T09:29:41.542Z,995.46
2022-11-05T09:30:41.522Z,995.47
2022-11-05T09:31:41.518Z,995.48
2022-11-05T09:32:41.565Z,995.44
2022-11-05T09:33:41.538Z,995.46
2022-11-05T09:34:41.558Z,995.46
2022-11-05T09:35:41.535Z,995.48
2022-11-05T09:36:41.565Z,995.55
2022-11-05T09:37:41.551Z,995.49
2022-11-05T09:38:41.549Z,995.57
2022-11-05T09:39:41.521Z,995.54
2022-11-05T09:40:41.515Z,995.57
2022-11-05T09:41:41.578Z,995.58
2022-11-05T09:42:41.528Z,995.47
2022-11-05T09:43:41.592Z,995.65
2022-11-05T09:44:41.573Z,995.50
2022-11-05T09:45:41.584Z,995.50
2022-11-05T09:46:41.528Z,995.51
2022-11-05T09:47:41.575Z,995.53
2022-11-05T09:48:41.580Z,995.56
2022-11-05T09:49:41.617Z,995.51
2022-11-05T09:50:41.595Z,995.57
2022-11-05T09:51:41.573Z,995.59
2022-11-05T09:52:41.577Z,995.54
2022-11-05T09:53:41.604Z,995.63
2022-11-05T09:54:41.625Z,995.64
2022-11-05T09:55:41.551Z,995.59
2022-11-05T09:56:41.542Z,995.66
2022-11-05T09:57:41.539Z,995.63
2022-11-05T09:58:41.589Z,995.60
2022-11-05T09:59:41.532Z,995.68
2022-11-05T10:00:41.688Z,995.59
2022-11-05T10:01:41.757Z,995.58
2022-11-05T10:02:41.644Z,995.56
2022-11-05T10:03:41.578Z,995.57
2022-11-05T10:04:41.539Z,995.60
2022-11-05T10:05:41.641Z,995.57
2022-11-05T10:06:41.545Z,995.56
2022-11-05T10:07:41.557Z,995.61
2022-11-05T10:08:41.551Z,995.58
2022-11-05T10:09:41.547Z,995.63
2022-11-05T10:10:41.619Z,995.65
2022-11-05T10:11:41.603Z,995.57
2022-11-05T10:12:41.605Z,995.66
2022-11-05T10:13:41.568Z,995.65
2022-11-05T10:14:41.613Z,995.60
2022-11-05T10:15:41.621Z,995.60
2022-11-05T10:16:41.616Z,995.61
2022-11-05T10:17:41.618Z,995.56
2022-11-05T10:18:41.578Z,995.53
2022-11-05T10:19:41.576Z,995.59
2022-11-05T10:20:41.591Z,995.53
2022-11-05T10:22:05.727Z,995.50
2022-11-05T10:22:45.194Z,995.53
2022-11-05T10:23:41.597Z,995.50
2022-11-05T10:24:41.566Z,995.51
2022-11-05T10:25:41.633Z,995.53
2022-11-05T10:26:41.617Z,995.52
2022-11-05T10:27:41.605Z,995.50
2022-11-05T10:28:41.629Z,995.49
2022-11-05T10:29:41.649Z,995.54
2022-11-05T10:30:41.587Z,995.58
2022-11-05T10:31:41.585Z,995.55
2022-11-05T10:32:41.593Z,995.56
2022-11-05T10:33:41.634Z,995.55
2022-11-05T10:34:41.634Z,995.60
2022-11-05T10:35:41.591Z,995.64
2022-11-05T10:36:41.630Z,995.59
2022-11-05T10:37:41.632Z,995.62
2022-11-05T10:38:41.603Z,995.62
2022-11-05T10:39:41.599Z,995.62
2022-11-05T10:40:41.654Z,995.66
2022-11-05T10:41:41.615Z,995.71
2022-11-05T10:42:41.606Z,995.70
2022-11-05T10:43:41.610Z,995.73
2022-11-05T10:44:41.663Z,995.65
2022-11-05T10:45:41.594Z,995.70
2022-11-05T10:46:41.637Z,995.73
2022-11-05T10:47:41.614Z,995.65
2022-11-05T10:48:43.616Z,995.76
2022-11-05T10:49:41.738Z,995.73
2022-11-05T10:50:41.747Z,995.72
2022-11-05T10:51:41.812Z,995.71
2022-11-05T10:52:41.796Z,995.69
2022-11-05T10:53:41.825Z,995.64
2022-11-05T10:54:41.791Z,995.66
2022-11-05T10:55:41.819Z,995.68
2022-11-05T10:56:41.819Z,995.65
2022-11-05T10:57:41.855Z,995.69
2022-11-05T10:58:41.852Z,995.61
2022-11-05T10:59:41.847Z,995.63
2022-11-05T11:00:41.846Z,995.68
2022-11-05T11:01:41.997Z,995.67
2022-11-05T11:02:41.965Z,995.58
2022-11-05T11:03:41.955Z,995.56
2022-11-05T11:04:41.891Z,995.58
2022-11-05T11:05:41.982Z,995.64
2022-11-05T11:06:41.973Z,995.58
2022-11-05T11:07:41.981Z,995.56
2022-11-05T11:08:42.009Z,995.61
2022-11-05T11:09:41.924Z,995.65
2022-11-05T11:10:41.981Z,995.62
2022-11-05T11:11:41.981Z,995.59
2022-11-05T11:12:42.010Z,995.58
2022-11-05T11:13:42.010Z,995.54
2022-11-05T11:14:42.050Z,995.63
2022-11-05T11:15:42.092Z,995.59
2022-11-05T11:16:42.027Z,995.60
2022-11-05T11:17:42.060Z,995.61
2022-11-05T11:18:42.097Z,995.57
2022-11-05T11:19:42.110Z,995.60
2022-11-05T11:20:42.119Z,995.57
2022-11-05T11:21:42.132Z,995.54
2022-11-05T11:22:42.125Z,995.52
2022-11-05T11:23:42.141Z,995.59
2022-11-05T11:24:42.176Z,995.67
2022-11-05T11:25:42.175Z,995.56
2022-11-05T11:26:42.179Z,995.65
2022-11-05T11:27:42.184Z,995.63
2022-11-05T11:28:42.198Z,995.61
2022-11-05T11:29:46.561Z,995.59
2022-11-05T11:30:42.208Z,995.63
2022-11-05T11:31:42.216Z,995.64
2022-11-05T11:32:42.207Z,995.60
2022-11-05T11:33:42.252Z,995.70
2022-11-05T11:34:42.231Z,995.70
2022-11-05T11:35:42.217Z,995.62
2022-11-05T11:36:42.257Z,995.61
2022-11-05T11:37:42.371Z,995.60
2022-11-05T11:38:42.214Z,995.58
2022-11-05T11:39:42.187Z,995.64
2022-11-05T11:40:42.273Z,995.56
2022-11-05T11:41:42.278Z,995.60
2022-11-05T11:42:42.229Z,995.54
2022-11-05T11:43:42.265Z,995.53
2022-11-05T11:44:42.238Z,995.49
2022-11-05T11:45:42.244Z,995.50
2022-11-05T11:46:42.278Z,995.54
2022-11-05T11:47:42.234Z,995.46
2022-11-05T11:48:42.229Z,995.57
2022-11-05T11:49:42.258Z,995.54
2022-11-05T11:50:42.238Z,995.50
2022-11-05T11:51:42.327Z,995.50
2022-11-05T11:52:42.227Z,995.57
2022-11-05T11:53:42.240Z,995.57
2022-11-05T11:54:42.237Z,995.54
2022-11-05T11:55:42.258Z,995.52
2022-11-05T11:56:42.273Z,995.50
2022-11-05T11:57:42.238Z,995.52
2022-11-05T11:58:42.245Z,995.53
2022-11-05T12:00:07.135Z,995.48
2022-11-05T12:00:42.299Z,995.59
2022-11-05T12:01:42.348Z,995.47
2022-11-05T12:02:42.318Z,995.55
2022-11-05T12:03:42.263Z,995.49
2022-11-05T12:04:42.237Z,995.53
2022-11-05T12:05:42.302Z,995.47
2022-11-05T12:06:42.313Z,995.46
2022-11-05T12:07:42.255Z,995.46
2022-11-05T12:08:45.546Z,995.44
2022-11-05T12:09:42.230Z,995.50
2022-11-05T12:10:42.312Z,995.38
2022-11-05T12:11:42.255Z,995.40
2022-11-05T12:12:42.248Z,995.43
2022-11-05T12:13:42.333Z,995.45
2022-11-05T12:14:46.217Z,995.39
2022-11-05T12:15:42.264Z,995.40
2022-11-05T12:16:42.268Z,995.45
2022-11-05T12:17:42.283Z,995.42
2022-11-05T12:18:42.257Z,995.45
2022-11-05T12:19:42.276Z,995.41
2022-11-05T12:20:42.267Z,995.43
2022-11-05T12:21:52.580Z,995.36
2022-11-05T12:22:42.267Z,995.40
2022-11-05T12:23:42.312Z,995.40
2022-11-05T12:24:42.258Z,995.37
2022-11-05T12:25:42.301Z,995.44
2022-11-05T12:26:42.405Z,995.44
2022-11-05T12:27:42.337Z,995.36
2022-11-05T12:29:04.649Z,995.36